CheckWX is a tool to help pilots better visualize weather data.  It is not intended as a substitute for an official pre-flight weather briefing.

20:35:51 UTC

ZUGY METAR
Longdongbao Airport
Guiyang, China
Current

36 mins ago

ZUGY 162000Z 22004MPS 9999 SCT023 23/20 Q1009 NOSIG
Observed
Jul-16 @ 20:00 UTC
Wind
  • 220° at 8 KTS
Visibility
10,000+ meters
Flight Rules
VFR
Cloud Levels
  • Scattered at 2,300' AGL
Temperature
23°C / 73°F
Dewpoint
20°C / 68°F
Humidity
83%
Altimeter
29.79" Hg
Pressure
1008.92 hPa
Previous

2 hours ago

ZUGY 161900Z 20002MPS 9999 SCT023 23/21 Q1009 NOSIG
Observed
Jul-16 @ 19:00 UTC
Wind
  • 200° at 4 KTS
Visibility
10,000+ meters
Flight Rules
VFR
Cloud Levels
  • Scattered at 2,300' AGL
Temperature
23°C / 73°F
Dewpoint
21°C / 70°F
Humidity
89%
Altimeter
29.79" Hg
Pressure
1008.92 hPa
Previous

3 hours ago

ZUGY 161800Z 20003MPS 9999 SCT023 24/21 Q1009 NOSIG
Observed
Jul-16 @ 18:00 UTC
Wind
  • 200° at 6 KTS
Visibility
10,000+ meters
Flight Rules
VFR
Cloud Levels
  • Scattered at 2,300' AGL
Temperature
24°C / 75°F
Dewpoint
21°C / 70°F
Humidity
83%
Altimeter
29.79" Hg
Pressure
1008.92 hPa